createdAt,value
2017-06-06T00:01:33.413Z,15.20
2017-06-06T00:04:01.707Z,15.20
2017-06-06T00:06:29.982Z,15.20
2017-06-06T00:08:58.314Z,15.20
2017-06-06T00:11:26.602Z,15.20
2017-06-06T00:13:54.968Z,15.30
2017-06-06T00:16:23.347Z,15.30
2017-06-06T00:18:51.722Z,15.30
2017-06-06T00:21:19.991Z,15.30
2017-06-06T00:23:48.379Z,15.30
2017-06-06T00:26:16.759Z,15.30
2017-06-06T00:28:45.154Z,15.40
2017-06-06T00:31:13.562Z,15.40
2017-06-06T00:33:42.724Z,15.40
2017-06-06T00:36:11.109Z,15.40
2017-06-06T00:38:39.487Z,15.40
2017-06-06T00:41:07.763Z,15.40
2017-06-06T00:43:36.051Z,15.40
2017-06-06T00:46:04.322Z,15.40
2017-06-06T00:48:32.608Z,15.40
2017-06-06T00:51:00.880Z,15.40
2017-06-06T00:53:29.270Z,15.40
2017-06-06T00:55:57.629Z,15.50
2017-06-06T00:58:25.923Z,15.50
2017-06-06T01:00:54.290Z,15.50
2017-06-06T01:03:22.596Z,15.50
2017-06-06T01:05:50.880Z,15.60
2017-06-06T01:08:19.176Z,15.50
2017-06-06T01:10:48.213Z,15.40
2017-06-06T01:13:16.504Z,15.50
2017-06-06T01:15:44.806Z,15.40
2017-06-06T01:18:13.189Z,15.40
2017-06-06T01:20:41.447Z,15.40
2017-06-06T01:23:09.739Z,15.50
2017-06-06T01:25:43.825Z,15.40
2017-06-06T01:28:12.133Z,15.40
2017-06-06T01:30:41.307Z,15.40
2017-06-06T01:33:09.576Z,15.40
2017-06-06T01:35:38.647Z,15.40
2017-06-06T01:38:06.917Z,15.40
2017-06-06T01:40:36.098Z,15.50
2017-06-06T01:43:04.364Z,15.50
2017-06-06T01:45:32.674Z,15.40
2017-06-06T01:48:03.250Z,15.50
2017-06-06T01:50:32.694Z,15.50
2017-06-06T01:53:01.748Z,15.50
2017-06-06T01:55:30.117Z,15.40
2017-06-06T01:57:58.423Z,15.50
2017-06-06T02:00:26.735Z,15.50
2017-06-06T02:02:55.012Z,15.50
2017-06-06T02:05:23.348Z,15.50
2017-06-06T02:07:51.624Z,15.50
2017-06-06T02:10:20.017Z,15.50
2017-06-06T02:12:48.385Z,15.60
2017-06-06T02:15:16.761Z,15.50
2017-06-06T02:17:45.048Z,15.50
2017-06-06T02:20:13.427Z,15.50
2017-06-06T02:22:41.801Z,15.50
2017-06-06T02:25:10.187Z,15.40
2017-06-06T02:27:38.556Z,15.50
2017-06-06T02:30:06.937Z,15.50
2017-06-06T02:32:35.217Z,15.50
2017-06-06T02:35:03.604Z,15.50
2017-06-06T02:37:31.971Z,15.40
2017-06-06T02:40:00.361Z,15.40
2017-06-06T02:42:28.729Z,15.40
2017-06-06T02:44:57.108Z,15.40
2017-06-06T02:47:25.496Z,15.40
2017-06-06T02:49:53.767Z,15.40
2017-06-06T02:52:22.145Z,15.40
2017-06-06T02:54:50.530Z,15.40
2017-06-06T02:57:18.917Z,15.40
2017-06-06T02:59:47.284Z,15.40
2017-06-06T03:02:15.661Z,15.50
2017-06-06T03:04:44.041Z,15.40
2017-06-06T03:07:12.360Z,15.40
2017-06-06T03:09:40.628Z,15.50
2017-06-06T03:12:09.009Z,15.50
2017-06-06T03:14:37.279Z,15.50
2017-06-06T03:17:05.660Z,15.40
2017-06-06T03:19:33.930Z,15.40
2017-06-06T03:22:02.210Z,15.30
2017-06-06T03:24:30.507Z,15.30
2017-06-06T03:26:58.862Z,15.20
2017-06-06T03:29:27.156Z,15.20
2017-06-06T03:31:55.523Z,15.30
2017-06-06T03:34:23.915Z,15.30
2017-06-06T03:36:52.225Z,15.30
2017-06-06T03:39:20.613Z,15.20
2017-06-06T03:41:48.874Z,15.30
2017-06-06T03:44:17.256Z,15.30
2017-06-06T03:46:45.665Z,15.20
2017-06-06T03:49:13.951Z,15.20
2017-06-06T03:51:42.217Z,15.20
2017-06-06T03:54:11.312Z,15.10
2017-06-06T03:56:39.654Z,15.10
2017-06-06T03:59:08.033Z,15.20
2017-06-06T04:01:36.413Z,15.20
2017-06-06T04:04:04.804Z,15.20
2017-06-06T04:06:33.085Z,15.20
2017-06-06T04:09:01.445Z,15.30
2017-06-06T04:11:29.829Z,15.40
2017-06-06T04:13:58.207Z,15.40
2017-06-06T04:16:26.598Z,15.30
2017-06-06T04:18:54.968Z,15.30
2017-06-06T04:21:23.271Z,15.30
2017-06-06T04:23:52.385Z,15.50
2017-06-06T04:26:21.547Z,15.50
2017-06-06T04:28:49.875Z,15.50
2017-06-06T04:31:18.212Z,15.60
2017-06-06T04:33:46.496Z,15.60
2017-06-06T04:36:14.870Z,15.70
2017-06-06T04:38:43.147Z,15.80
2017-06-06T04:41:11.439Z,15.90
2017-06-06T04:43:39.704Z,16.00
2017-06-06T04:46:07.999Z,16.10
2017-06-06T04:48:37.075Z,16.30
2017-06-06T04:51:05.365Z,16.30
2017-06-06T04:53:34.400Z,16.40
2017-06-06T04:56:02.717Z,16.40
2017-06-06T04:58:31.011Z,16.60
2017-06-06T05:00:59.288Z,16.60
2017-06-06T05:03:27.646Z,16.50
2017-06-06T05:05:55.923Z,16.50
2017-06-06T05:08:24.306Z,16.60
2017-06-06T05:10:52.582Z,16.60
2017-06-06T05:13:20.960Z,16.70
2017-06-06T05:15:49.357Z,16.90
2017-06-06T05:18:17.717Z,16.90
2017-06-06T05:20:45.989Z,16.90
2017-06-06T05:23:14.369Z,17.00
2017-06-06T05:25:42.644Z,17.00
2017-06-06T05:28:11.040Z,17.10
2017-06-06T05:30:39.316Z,17.20
2017-06-06T05:33:07.634Z,17.30
2017-06-06T05:35:35.913Z,17.30
2017-06-06T05:38:04.238Z,17.40
2017-06-06T05:40:32.632Z,17.40
2017-06-06T05:43:00.917Z,17.40
2017-06-06T05:45:29.305Z,17.40
2017-06-06T05:47:58.380Z,17.60
2017-06-06T05:50:26.660Z,17.60
2017-06-06T05:52:54.930Z,17.70
2017-06-06T05:55:23.309Z,17.50
2017-06-06T05:57:51.566Z,17.50
2017-06-06T06:00:19.913Z,17.50
2017-06-06T06:02:48.982Z,17.60
2017-06-06T06:05:17.449Z,17.60
2017-06-06T06:07:45.713Z,17.60
2017-06-06T06:10:14.477Z,17.60
2017-06-06T06:12:42.754Z,17.60
2017-06-06T06:15:11.046Z,17.70
2017-06-06T06:17:39.462Z,17.80
2017-06-06T06:20:07.751Z,17.90
2017-06-06T06:22:36.820Z,18.10
2017-06-06T06:25:05.213Z,18.10
2017-06-06T06:27:33.537Z,18.10
2017-06-06T06:30:01.916Z,18.30
2017-06-06T06:32:30.294Z,18.40
2017-06-06T06:34:58.577Z,18.50
2017-06-06T06:37:26.848Z,18.70
2017-06-06T06:39:55.238Z,18.90
2017-06-06T06:42:23.614Z,18.90
2017-06-06T06:44:52.020Z,19.10
2017-06-06T06:47:21.084Z,19.20
2017-06-06T06:49:49.460Z,19.20
2017-06-06T06:52:17.840Z,19.30
2017-06-06T06:54:46.321Z,19.40
2017-06-06T06:57:14.618Z,19.50
2017-06-06T06:59:42.975Z,19.60
2017-06-06T07:02:11.285Z,19.70
2017-06-06T07:04:39.562Z,19.70
2017-06-06T07:07:08.633Z,19.90
2017-06-06T07:09:36.917Z,19.90
2017-06-06T07:12:05.189Z,20.10
2017-06-06T07:14:33.472Z,20.20
2017-06-06T07:17:01.750Z,20.10
2017-06-06T07:19:30.115Z,20.00
2017-06-06T07:21:58.417Z,20.20
2017-06-06T07:24:27.460Z,20.40
2017-06-06T07:26:55.764Z,20.40
2017-06-06T07:29:24.034Z,20.60
2017-06-06T07:31:52.427Z,20.60
2017-06-06T07:34:20.801Z,20.50
2017-06-06T07:36:49.180Z,20.50
2017-06-06T07:39:17.557Z,20.50
2017-06-06T07:41:45.853Z,20.50
2017-06-06T07:44:14.138Z,20.50
2017-06-06T07:46:46.735Z,20.50
2017-06-06T07:49:15.179Z,20.50
2017-06-06T07:51:43.553Z,20.50
2017-06-06T07:54:11.828Z,20.40
2017-06-06T07:56:40.122Z,20.30
2017-06-06T07:59:09.201Z,20.30
2017-06-06T08:01:37.572Z,20.30
2017-06-06T08:04:05.849Z,20.30
2017-06-06T08:06:34.233Z,20.30
2017-06-06T08:09:02.518Z,20.40
2017-06-06T08:11:30.889Z,20.40
2017-06-06T08:13:59.269Z,20.50
2017-06-06T08:16:27.550Z,20.70
2017-06-06T08:18:55.943Z,20.70
2017-06-06T08:21:25.670Z,21.00
2017-06-06T08:23:54.009Z,21.00
2017-06-06T08:26:23.097Z,21.10
2017-06-06T08:28:51.380Z,21.00
2017-06-06T08:31:19.649Z,21.00
2017-06-06T08:33:48.706Z,20.70
2017-06-06T08:36:17.005Z,20.70
2017-06-06T08:38:45.284Z,20.70
2017-06-06T08:41:13.696Z,20.70
2017-06-06T08:43:42.772Z,20.60
2017-06-06T08:46:11.046Z,20.60
2017-06-06T08:48:39.429Z,20.50
2017-06-06T08:51:07.709Z,20.40
2017-06-06T08:53:36.026Z,20.40
2017-06-06T08:56:04.368Z,20.50
2017-06-06T08:58:32.649Z,20.40
2017-06-06T09:01:00.995Z,20.30
2017-06-06T09:03:29.260Z,20.40
2017-06-06T09:05:57.548Z,20.40
2017-06-06T09:08:25.827Z,20.40
2017-06-06T09:10:54.197Z,20.50
2017-06-06T09:13:22.470Z,20.50
2017-06-06T09:15:50.863Z,20.50
2017-06-06T09:18:19.941Z,20.50
2017-06-06T09:20:49.017Z,20.50
2017-06-06T09:23:17.328Z,20.50
2017-06-06T09:25:45.613Z,20.60
2017-06-06T09:28:14.672Z,21.00
2017-06-06T09:30:42.973Z,21.00
2017-06-06T09:33:12.146Z,21.30
2017-06-06T09:35:40.444Z,21.30
2017-06-06T09:38:08.727Z,21.40
2017-06-06T09:40:37.005Z,21.60
2017-06-06T09:43:05.289Z,21.70
2017-06-06T09:45:33.658Z,21.70
2017-06-06T09:48:01.950Z,21.80
2017-06-06T09:50:30.329Z,22.00
2017-06-06T09:52:58.704Z,22.20
2017-06-06T09:55:26.971Z,22.20
2017-06-06T09:57:55.367Z,22.30
2017-06-06T10:00:23.645Z,22.40
2017-06-06T10:02:51.952Z,22.50
2017-06-06T10:05:20.228Z,22.60
2017-06-06T10:07:48.561Z,22.80
2017-06-06T10:10:16.952Z,23.10
2017-06-06T10:12:45.320Z,23.20
2017-06-06T10:15:13.706Z,23.40
2017-06-06T10:17:41.990Z,23.70
2017-06-06T10:20:10.357Z,23.80
2017-06-06T10:22:38.745Z,24.10
2017-06-06T10:25:07.035Z,24.20
2017-06-06T10:27:36.082Z,24.60
2017-06-06T10:30:04.382Z,24.50
2017-06-06T10:32:32.672Z,24.60
2017-06-06T10:35:01.044Z,24.90
2017-06-06T10:37:29.420Z,25.10
2017-06-06T10:39:57.809Z,25.00
2017-06-06T10:42:26.088Z,25.30
2017-06-06T10:44:54.459Z,25.50
2017-06-06T10:47:22.720Z,25.50
2017-06-06T10:49:51.028Z,25.20
2017-06-06T10:52:20.103Z,25.00
2017-06-06T10:54:48.389Z,25.00
2017-06-06T10:57:16.781Z,25.10
2017-06-06T10:59:45.040Z,24.90
2017-06-06T11:02:13.416Z,25.00
2017-06-06T11:04:41.793Z,25.10
2017-06-06T11:07:10.180Z,25.00
2017-06-06T11:09:38.566Z,25.40
2017-06-06T11:12:06.946Z,25.70
2017-06-06T11:14:35.217Z,25.80
2017-06-06T11:17:03.603Z,25.70
2017-06-06T11:19:31.972Z,25.70
2017-06-06T11:22:00.348Z,25.60
2017-06-06T11:24:28.629Z,25.40
2017-06-06T11:26:57.002Z,25.40
2017-06-06T11:29:25.280Z,25.40
2017-06-06T11:31:53.668Z,25.40
2017-06-06T11:34:21.939Z,25.40
2017-06-06T11:36:50.216Z,25.50
2017-06-06T11:39:18.504Z,25.30
2017-06-06T11:41:46.769Z,25.40
2017-06-06T11:44:15.145Z,25.60
2017-06-06T11:46:43.404Z,25.60
2017-06-06T11:49:11.700Z,25.80
2017-06-06T11:51:39.956Z,25.80
2017-06-06T11:54:08.254Z,25.70
2017-06-06T11:56:36.504Z,25.70
2017-06-06T11:59:04.801Z,26.00
2017-06-06T12:01:33.064Z,26.10
2017-06-06T12:04:01.337Z,26.30
2017-06-06T12:06:29.596Z,26.50
2017-06-06T12:08:57.966Z,27.60
2017-06-06T12:11:26.977Z,31.10
2017-06-06T12:13:55.288Z,31.00
2017-06-06T12:16:23.563Z,31.70
2017-06-06T12:18:51.838Z,33.50
2017-06-06T12:21:20.119Z,34.90
2017-06-06T12:23:48.503Z,36.00
2017-06-06T12:26:16.881Z,36.10
2017-06-06T12:28:45.160Z,36.30
2017-06-06T12:31:13.540Z,36.10
2017-06-06T12:33:41.913Z,36.80
2017-06-06T12:36:10.194Z,38.30
2017-06-06T12:38:38.452Z,38.10
2017-06-06T12:41:06.740Z,37.80
2017-06-06T12:43:35.025Z,38.60
2017-06-06T12:46:03.401Z,38.40
2017-06-06T12:48:31.785Z,37.40
2017-06-06T12:51:00.156Z,37.00
2017-06-06T12:53:28.449Z,35.70
2017-06-06T12:55:56.811Z,36.10
2017-06-06T12:58:25.089Z,36.30
2017-06-06T13:00:53.365Z,36.90
2017-06-06T13:03:21.744Z,35.50
2017-06-06T13:05:50.033Z,33.50
2017-06-06T13:08:18.300Z,34.50
2017-06-06T13:10:46.635Z,34.60
2017-06-06T13:13:14.917Z,33.30
2017-06-06T13:15:43.233Z,31.80
2017-06-06T13:18:11.516Z,30.80
2017-06-06T13:20:39.888Z,30.00
2017-06-06T13:23:08.278Z,29.80
2017-06-06T13:25:36.647Z,30.30
2017-06-06T13:28:05.042Z,32.30
2017-06-06T13:30:33.302Z,32.70
2017-06-06T13:33:01.570Z,33.10
2017-06-06T13:35:29.855Z,34.50
2017-06-06T13:37:58.132Z,34.80
2017-06-06T13:40:26.518Z,35.00
2017-06-06T13:42:54.905Z,34.30
2017-06-06T13:45:23.198Z,32.70
2017-06-06T13:47:52.235Z,30.60
2017-06-06T13:50:20.550Z,30.60
2017-06-06T13:52:48.920Z,29.90
2017-06-06T13:55:17.214Z,29.50
2017-06-06T13:57:45.468Z,29.20
2017-06-06T14:00:13.849Z,29.40
2017-06-06T14:02:42.129Z,29.80
2017-06-06T14:05:10.509Z,30.10
2017-06-06T14:07:38.772Z,31.10
2017-06-06T14:10:07.033Z,31.60
2017-06-06T14:12:35.321Z,32.00
2017-06-06T14:15:03.619Z,32.60
2017-06-06T14:17:31.990Z,32.20
2017-06-06T14:20:00.274Z,32.40
2017-06-06T14:22:28.552Z,31.50
2017-06-06T14:24:56.949Z,30.60
2017-06-06T14:27:25.312Z,30.70
2017-06-06T14:29:53.677Z,30.70
2017-06-06T14:32:21.972Z,30.80
2017-06-06T14:34:50.354Z,31.90
2017-06-06T14:37:18.621Z,32.30
2017-06-06T14:39:46.880Z,32.60
2017-06-06T14:42:15.165Z,32.40
2017-06-06T14:44:43.458Z,32.60
2017-06-06T14:47:11.745Z,31.80
2017-06-06T14:49:40.211Z,31.30
2017-06-06T14:52:08.594Z,30.40
2017-06-06T14:54:36.853Z,29.90
2017-06-06T14:57:05.141Z,29.20
2017-06-06T14:59:33.418Z,28.80
2017-06-06T15:02:01.701Z,28.50
2017-06-06T15:04:29.990Z,28.60
2017-06-06T15:06:58.351Z,28.40
2017-06-06T15:09:26.631Z,27.90
2017-06-06T15:11:54.937Z,27.70
2017-06-06T15:14:24.105Z,27.20
2017-06-06T15:16:52.382Z,27.20
2017-06-06T15:19:20.664Z,26.90
2017-06-06T15:21:49.041Z,26.80
2017-06-06T15:24:17.316Z,26.70
2017-06-06T15:26:45.693Z,26.70
2017-06-06T15:29:13.965Z,26.60
2017-06-06T15:31:42.263Z,26.40
2017-06-06T15:34:10.731Z,26.30
2017-06-06T15:36:38.985Z,26.00
2017-06-06T15:39:07.271Z,25.80
2017-06-06T15:41:35.558Z,25.60
2017-06-06T15:44:04.045Z,25.50
2017-06-06T15:46:32.314Z,25.30
2017-06-06T15:49:00.594Z,25.20
2017-06-06T15:51:28.872Z,25.10
2017-06-06T15:53:57.274Z,25.00
2017-06-06T15:56:25.539Z,24.90
2017-06-06T15:58:53.894Z,24.60
2017-06-06T16:01:22.285Z,23.90
2017-06-06T16:03:50.554Z,22.90
2017-06-06T16:06:18.942Z,22.10
2017-06-06T16:08:47.215Z,21.60
2017-06-06T16:11:15.599Z,21.10
2017-06-06T16:13:43.904Z,20.70
2017-06-06T16:16:12.361Z,20.40
2017-06-06T16:18:40.634Z,20.20
2017-06-06T16:21:08.922Z,20.10
2017-06-06T16:23:37.198Z,19.90
2017-06-06T16:26:05.564Z,19.80
2017-06-06T16:28:33.869Z,19.70
2017-06-06T16:31:02.896Z,19.60
2017-06-06T16:33:31.232Z,19.60
2017-06-06T16:35:59.597Z,19.50
2017-06-06T16:38:27.856Z,19.50
2017-06-06T16:40:56.178Z,19.40
2017-06-06T16:43:25.243Z,19.00
2017-06-06T16:45:54.297Z,18.80
2017-06-06T16:48:22.573Z,18.70
2017-06-06T16:50:50.929Z,18.60
2017-06-06T16:53:19.234Z,18.60
2017-06-06T16:55:47.633Z,18.50
2017-06-06T16:58:16.718Z,18.40
2017-06-06T17:00:44.980Z,18.40
2017-06-06T17:03:13.386Z,18.40
2017-06-06T17:06:16.577Z,18.30
2017-06-06T17:08:44.868Z,18.30
2017-06-06T17:11:13.905Z,18.30
2017-06-06T17:13:42.422Z,18.30
2017-06-06T17:16:10.693Z,18.30
2017-06-06T17:18:38.971Z,18.30
2017-06-06T17:21:07.342Z,18.40
2017-06-06T17:23:35.621Z,18.40
2017-06-06T17:26:04.884Z,18.50
2017-06-06T17:28:33.174Z,18.50
2017-06-06T17:31:01.539Z,18.60
2017-06-06T17:33:29.881Z,18.70
2017-06-06T17:35:59.117Z,18.80
2017-06-06T17:38:27.453Z,18.80
2017-06-06T17:40:55.712Z,18.80
2017-06-06T17:43:24.092Z,18.80
2017-06-06T17:45:52.462Z,18.80
2017-06-06T17:48:20.828Z,18.80
2017-06-06T17:50:49.130Z,18.80
2017-06-06T17:53:17.629Z,18.80
2017-06-06T17:55:45.961Z,18.90
2017-06-06T17:58:14.308Z,18.80
2017-06-06T18:00:42.687Z,18.80
2017-06-06T18:03:11.896Z,18.80
2017-06-06T18:05:40.915Z,18.80
2017-06-06T18:08:09.283Z,18.80
2017-06-06T18:10:37.622Z,18.80
2017-06-06T18:13:05.908Z,18.70
2017-06-06T18:15:34.269Z,18.70
2017-06-06T18:18:02.575Z,18.70
2017-06-06T18:20:30.836Z,18.70
2017-06-06T18:22:59.196Z,18.70
2017-06-06T18:25:27.587Z,18.70
2017-06-06T18:27:55.966Z,18.80
2017-06-06T18:30:24.221Z,18.70
2017-06-06T18:32:52.617Z,18.70
2017-06-06T18:35:20.917Z,18.80
2017-06-06T18:37:49.982Z,18.80
2017-06-06T18:40:18.280Z,18.80
2017-06-06T18:42:46.529Z,18.80
2017-06-06T18:45:14.833Z,18.80
2017-06-06T18:47:43.107Z,18.70
2017-06-06T18:50:11.388Z,18.70
2017-06-06T18:52:39.657Z,18.70
2017-06-06T18:55:08.034Z,18.70
2017-06-06T18:57:36.298Z,18.70
2017-06-06T19:00:04.596Z,18.60
2017-06-06T19:02:32.974Z,18.60
2017-06-06T19:05:01.366Z,18.60
2017-06-06T19:07:29.618Z,18.60
2017-06-06T19:09:58.003Z,18.60
2017-06-06T19:12:26.264Z,18.50
2017-06-06T19:14:54.533Z,18.50
2017-06-06T19:17:22.934Z,18.50
2017-06-06T19:19:51.202Z,18.50
2017-06-06T19:22:19.508Z,18.40
2017-06-06T19:24:47.769Z,18.40
2017-06-06T19:27:16.033Z,18.30
2017-06-06T19:29:44.425Z,18.30
2017-06-06T19:32:12.806Z,18.20
2017-06-06T19:34:41.187Z,18.30
2017-06-06T19:37:09.481Z,18.20
2017-06-06T19:39:38.557Z,18.10
2017-06-06T19:42:06.830Z,18.20
2017-06-06T19:44:35.177Z,18.10
2017-06-06T19:47:03.497Z,18.10
2017-06-06T19:49:31.762Z,17.90
2017-06-06T19:52:00.846Z,17.50
2017-06-06T19:54:29.224Z,17.50
2017-06-06T19:56:58.256Z,16.90
2017-06-06T19:59:26.558Z,16.80
2017-06-06T20:01:56.300Z,16.40
2017-06-06T20:04:24.623Z,16.00
2017-06-06T20:06:52.920Z,15.70
2017-06-06T20:09:21.238Z,15.50
2017-06-06T20:11:49.529Z,15.30
2017-06-06T20:14:17.791Z,15.00
2017-06-06T20:16:46.090Z,14.80
2017-06-06T20:19:14.346Z,14.60
2017-06-06T20:21:42.666Z,14.50
2017-06-06T20:24:11.740Z,14.30
2017-06-06T20:26:40.002Z,14.30
2017-06-06T20:29:08.306Z,14.30
2017-06-06T20:31:37.354Z,14.10
2017-06-06T20:34:05.677Z,14.10
2017-06-06T20:36:34.978Z,14.00
2017-06-06T20:39:03.242Z,13.90
2017-06-06T20:41:31.578Z,13.90
2017-06-06T20:43:59.868Z,13.80
2017-06-06T20:46:28.151Z,13.70
2017-06-06T20:48:56.442Z,13.70
2017-06-06T20:51:24.742Z,13.60
2017-06-06T20:53:53.075Z,13.60
2017-06-06T20:56:21.342Z,13.60
2017-06-06T20:58:49.645Z,13.60
2017-06-06T21:01:19.443Z,13.50
2017-06-06T21:03:48.488Z,13.50
2017-06-06T21:06:17.570Z,13.50
2017-06-06T21:08:45.838Z,13.50
2017-06-06T21:11:14.254Z,13.50
2017-06-06T21:13:42.525Z,13.40
2017-06-06T21:16:10.790Z,13.50
2017-06-06T21:18:39.079Z,13.50
2017-06-06T21:21:07.461Z,13.50
2017-06-06T21:23:35.819Z,13.50
2017-06-06T21:26:04.088Z,13.50
2017-06-06T21:28:32.409Z,13.60
2017-06-06T21:31:00.773Z,13.60
2017-06-06T21:33:29.926Z,13.70
2017-06-06T21:35:58.321Z,13.70
2017-06-06T21:38:26.597Z,13.80
2017-06-06T21:40:55.678Z,13.90
2017-06-06T21:43:23.984Z,13.90
2017-06-06T21:45:52.386Z,14.00
2017-06-06T21:48:20.729Z,13.90
2017-06-06T21:50:49.307Z,14.00
2017-06-06T21:53:17.607Z,14.10
2017-06-06T21:55:46.987Z,14.10
2017-06-06T21:58:15.365Z,14.10
2017-06-06T22:00:43.648Z,14.10
2017-06-06T22:03:12.026Z,14.00
2017-06-06T22:05:40.343Z,14.00
2017-06-06T22:08:09.521Z,14.00
2017-06-06T22:10:37.815Z,14.00
2017-06-06T22:13:06.154Z,14.10
2017-06-06T22:15:34.534Z,14.20
2017-06-06T22:18:02.877Z,14.20
2017-06-06T22:20:31.168Z,14.20
2017-06-06T22:22:59.496Z,14.30
2017-06-06T22:25:27.822Z,14.30
2017-06-06T22:27:56.436Z,14.30
2017-06-06T22:30:24.710Z,14.30
2017-06-06T22:32:53.120Z,14.30
2017-06-06T22:35:21.491Z,14.30
2017-06-06T22:37:49.817Z,14.30
2017-06-06T22:40:18.142Z,14.30
2017-06-06T22:42:46.574Z,14.30
2017-06-06T22:45:14.991Z,14.30
2017-06-06T22:47:43.314Z,14.30
2017-06-06T22:50:12.450Z,14.30
2017-06-06T22:52:40.891Z,14.30
2017-06-06T22:55:09.154Z,14.30
2017-06-06T22:57:37.447Z,14.30
2017-06-06T23:00:05.722Z,14.30
2017-06-06T23:02:34.040Z,14.30
2017-06-06T23:05:02.320Z,14.30
2017-06-06T23:07:30.581Z,14.30
2017-06-06T23:09:58.930Z,14.30
2017-06-06T23:12:27.216Z,14.40
2017-06-06T23:14:56.297Z,14.40
2017-06-06T23:17:24.555Z,14.30
2017-06-06T23:19:52.844Z,14.40
2017-06-06T23:22:21.224Z,14.40
2017-06-06T23:24:49.501Z,14.40
2017-06-06T23:27:17.810Z,14.40
2017-06-06T23:29:46.900Z,14.30
2017-06-06T23:32:15.156Z,14.30
2017-06-06T23:34:43.495Z,14.30
2017-06-06T23:37:11.822Z,14.30
2017-06-06T23:39:40.193Z,14.30
2017-06-06T23:42:08.550Z,14.30
2017-06-06T23:44:36.835Z,14.20
2017-06-06T23:47:05.235Z,14.20
2017-06-06T23:49:33.513Z,14.10
2017-06-06T23:52:01.874Z,14.10
2017-06-06T23:54:30.132Z,14.10
2017-06-06T23:56:58.437Z,14.10
2017-06-06T23:59:26.815Z,14.10
